CheckWX is a tool to help pilots better visualize weather data.  It is not intended as a substitute for an official pre-flight weather briefing.

12:21:00 UTC

FCPP METAR
Pointe Noire Airport
Pointe Noire, Congo
Current

21 mins ago

FCPP 181200Z 21009KT 180V260 9999 SCT016 SCT026 FEW030CB 31/26 Q1009 NOSIG
Observed
Feb-18 @ 12:00 UTC
Wind
  • 210° at 9 KTS
Visibility
10,000+ meters
Flight Rules
VFR
Cloud Levels
  • Scattered at 1,600' AGL
  • Scattered at 2,600' AGL
  • Few at 3,000' AGL
Temperature
31°C / 88°F
Dewpoint
26°C / 79°F
Humidity
75%
Altimeter
29.79" Hg
Pressure
1008.92 hPa
Previous

1 hour ago

FCPP 181100Z 20008KT 9999 SCT016 SCT026 FEW030CB 30/26 Q1011 NOSIG
Observed
Feb-18 @ 11:00 UTC
Wind
  • 200° at 8 KTS
Visibility
10,000+ meters
Flight Rules
VFR
Cloud Levels
  • Scattered at 1,600' AGL
  • Scattered at 2,600' AGL
  • Few at 3,000' AGL
Temperature
30°C / 86°F
Dewpoint
26°C / 79°F
Humidity
79%
Altimeter
29.85" Hg
Pressure
1010.92 hPa
Previous

2 hours ago

FCPP 181000Z 16006KT 130V200 9999 SCT015 SCT026 FEW028TCU 31/26 Q1011 NOSIG
Observed
Feb-18 @ 10:00 UTC
Wind
  • 160° at 6 KTS
Visibility
10,000+ meters
Flight Rules
VFR
Cloud Levels
  • Scattered at 1,500' AGL
  • Scattered at 2,600' AGL
  • Few at 2,800' AGL
Temperature
31°C / 88°F
Dewpoint
26°C / 79°F
Humidity
75%
Altimeter
29.85" Hg
Pressure
1010.92 hPa